createdAt,value
2019-05-29T00:01:21.700Z,5.97
2019-05-29T00:03:51.012Z,5.67
2019-05-29T00:06:21.305Z,5.47
2019-05-29T00:08:51.476Z,5.67
2019-05-29T00:11:21.631Z,5.83
2019-05-29T00:13:53.392Z,5.80
2019-05-29T00:16:23.689Z,5.53
2019-05-29T00:18:53.852Z,6.23
2019-05-29T00:21:24.003Z,5.83
2019-05-29T00:23:54.160Z,5.60
2019-05-29T00:26:24.478Z,4.97
2019-05-29T00:28:54.883Z,5.70
2019-05-29T00:31:25.103Z,5.13
2019-05-29T00:33:55.249Z,5.30
2019-05-29T00:36:25.474Z,5.00
2019-05-29T00:38:55.611Z,4.87
2019-05-29T00:41:25.787Z,4.30
2019-05-29T00:43:55.922Z,4.43
2019-05-29T00:46:26.073Z,5.17
2019-05-29T00:48:56.219Z,4.57
2019-05-29T00:51:26.363Z,4.27
2019-05-29T00:53:56.759Z,4.20
2019-05-29T00:56:26.919Z,4.77
2019-05-29T00:58:57.077Z,4.23
2019-05-29T01:01:27.235Z,4.90
2019-05-29T01:03:57.383Z,4.20
2019-05-29T01:06:27.523Z,3.73
2019-05-29T01:08:57.828Z,3.97
2019-05-29T01:11:27.965Z,4.83
2019-05-29T01:13:58.111Z,4.43
2019-05-29T01:16:28.267Z,4.60
2019-05-29T01:19:18.074Z,4.30
2019-05-29T01:21:48.401Z,4.30
2019-05-29T01:24:18.555Z,4.47
2019-05-29T01:26:48.711Z,5.03
2019-05-29T01:29:19.465Z,3.60
2019-05-29T01:31:49.675Z,4.30
2019-05-29T01:34:19.890Z,4.70
2019-05-29T01:36:50.065Z,4.53
2019-05-29T01:39:21.303Z,4.40
2019-05-29T01:41:51.656Z,4.13
2019-05-29T01:44:21.822Z,5.13
2019-05-29T01:46:52.023Z,4.60
2019-05-29T01:49:22.177Z,4.60
2019-05-29T01:51:52.351Z,4.37
2019-05-29T01:54:23.714Z,4.97
2019-05-29T01:56:54.025Z,5.47
2019-05-29T01:59:24.208Z,5.07
2019-05-29T02:01:54.420Z,5.00
2019-05-29T02:04:24.579Z,5.00
2019-05-29T02:06:54.735Z,6.03
2019-05-29T02:09:24.868Z,5.30
2019-05-29T02:11:55.024Z,6.37
2019-05-29T02:14:26.681Z,6.43
2019-05-29T02:16:57.020Z,6.60
2019-05-29T02:19:28.209Z,6.10
2019-05-29T02:21:58.417Z,6.43
2019-05-29T02:24:28.600Z,6.80
2019-05-29T02:26:58.770Z,6.77
2019-05-29T02:29:28.894Z,6.97
2019-05-29T02:31:59.223Z,7.13
2019-05-29T02:34:29.908Z,6.97
2019-05-29T02:37:00.432Z,7.27
2019-05-29T02:39:30.578Z,8.57
2019-05-29T02:42:00.841Z,8.17
2019-05-29T02:44:30.987Z,8.47
2019-05-29T02:47:01.143Z,7.53
2019-05-29T02:49:31.284Z,7.80
2019-05-29T02:52:01.445Z,8.50
2019-05-29T02:54:32.433Z,7.90
2019-05-29T02:57:02.745Z,9.03
2019-05-29T02:59:32.900Z,8.80
2019-05-29T03:02:03.036Z,8.90
2019-05-29T03:04:33.305Z,8.40
2019-05-29T03:07:03.561Z,8.97
2019-05-29T03:09:34.883Z,8.97
2019-05-29T03:12:05.195Z,9.47
2019-05-29T03:14:35.352Z,9.23
2019-05-29T03:17:05.540Z,9.50
2019-05-29T03:19:36.806Z,9.60
2019-05-29T03:22:06.927Z,9.30
2019-05-29T03:24:37.081Z,8.43
2019-05-29T03:27:07.269Z,8.53
2019-05-29T03:29:38.480Z,7.20
2019-05-29T03:32:13.713Z,7.60
2019-05-29T03:34:46.060Z,8.27
2019-05-29T03:37:12.596Z,8.00
2019-05-29T03:39:42.740Z,9.37
2019-05-29T03:42:12.947Z,9.97
2019-05-29T03:44:44.415Z,10.53
2019-05-29T03:47:14.567Z,9.90
2019-05-29T03:49:44.741Z,10.10
2019-05-29T03:52:14.902Z,9.30
2019-05-29T03:54:45.044Z,11.23
2019-05-29T03:57:15.184Z,11.03
2019-05-29T03:59:45.379Z,9.83
2019-05-29T04:02:15.547Z,10.63
2019-05-29T04:04:45.705Z,10.60
2019-05-29T04:07:15.871Z,9.77
2019-05-29T04:09:46.029Z,11.30
2019-05-29T04:12:18.982Z,9.67
2019-05-29T04:14:48.405Z,10.30
2019-05-29T04:17:20.720Z,11.00
2019-05-29T04:19:51.393Z,8.00
2019-05-29T04:22:28.207Z,7.77
2019-05-29T04:25:00.081Z,7.27
2019-05-29T04:27:34.284Z,7.10
2019-05-29T04:30:06.281Z,7.27
2019-05-29T04:32:36.742Z,7.43
2019-05-29T04:35:07.371Z,7.43
2019-05-29T04:37:39.632Z,7.47
2019-05-29T04:40:10.339Z,7.47
2019-05-29T04:42:40.497Z,7.20
2019-05-29T04:45:10.895Z,7.63
2019-05-29T04:47:41.070Z,7.77
2019-05-29T04:50:11.309Z,7.90
2019-05-29T04:52:41.467Z,7.80
2019-05-29T04:55:15.509Z,7.60
2019-05-29T04:57:46.719Z,7.77
2019-05-29T05:00:17.044Z,7.60
2019-05-29T05:02:47.216Z,6.90
2019-05-29T05:05:19.497Z,5.93
2019-05-29T05:07:49.224Z,6.00
2019-05-29T05:10:35.537Z,5.47
2019-05-29T05:13:06.712Z,5.67
2019-05-29T05:15:37.956Z,5.17
2019-05-29T05:18:08.449Z,5.00
2019-05-29T05:20:38.623Z,5.00
2019-05-29T05:23:08.891Z,5.00
2019-05-29T05:25:40.835Z,5.20
2019-05-29T05:28:11.045Z,4.90
2019-05-29T05:30:41.212Z,4.87
2019-05-29T05:33:12.125Z,4.80
2019-05-29T05:35:42.299Z,5.00
2019-05-29T05:38:12.457Z,5.30
2019-05-29T05:40:43.275Z,5.60
2019-05-29T05:43:23.537Z,5.23
2019-05-29T05:45:45.581Z,5.93
2019-05-29T05:48:16.829Z,6.00
2019-05-29T05:50:47.125Z,6.37
2019-05-29T05:53:18.391Z,5.80
2019-05-29T05:55:48.574Z,6.80
2019-05-29T05:58:18.807Z,6.90
2019-05-29T06:00:49.140Z,6.80
2019-05-29T06:03:19.304Z,7.20
2019-05-29T06:05:49.461Z,5.10
2019-05-29T06:08:19.611Z,6.07
2019-05-29T06:10:51.342Z,5.20
2019-05-29T06:13:22.656Z,5.03
2019-05-29T06:15:52.802Z,5.40
2019-05-29T06:18:23.031Z,5.23
2019-05-29T06:20:53.188Z,5.10
2019-05-29T06:23:23.411Z,4.97
2019-05-29T06:25:53.647Z,4.33
2019-05-29T06:28:23.846Z,5.37
2019-05-29T06:30:53.983Z,4.80
2019-05-29T06:33:24.120Z,4.53
2019-05-29T06:35:54.284Z,4.27
2019-05-29T06:38:24.435Z,4.70
2019-05-29T06:40:54.637Z,4.60
2019-05-29T06:43:25.603Z,3.67
2019-05-29T06:45:56.662Z,4.27
2019-05-29T06:48:42.345Z,4.30
2019-05-29T06:50:59.964Z,4.40
2019-05-29T06:53:30.251Z,4.00
2019-05-29T06:56:01.833Z,4.20
2019-05-29T06:58:32.358Z,3.40
2019-05-29T07:01:02.552Z,2.90
2019-05-29T07:03:32.784Z,4.10
2019-05-29T07:06:03.980Z,3.50
2019-05-29T07:08:39.909Z,3.43
2019-05-29T07:11:06.173Z,4.17
2019-05-29T07:13:39.735Z,3.60
2019-05-29T07:16:08.219Z,3.60
2019-05-29T07:18:38.639Z,3.80
2019-05-29T07:21:09.015Z,3.70
2019-05-29T07:23:39.188Z,3.80
2019-05-29T07:26:09.339Z,3.53
2019-05-29T07:28:58.918Z,3.80
2019-05-29T07:31:12.511Z,3.20
2019-05-29T07:33:43.286Z,3.57
2019-05-29T07:36:13.483Z,3.77
2019-05-29T07:38:45.948Z,4.27
2019-05-29T07:41:15.543Z,3.30
2019-05-29T07:43:45.944Z,3.30
2019-05-29T07:46:16.288Z,2.93
2019-05-29T07:48:49.624Z,3.53
2019-05-29T07:51:20.414Z,3.80
2019-05-29T07:53:50.624Z,3.10
2019-05-29T07:56:23.074Z,3.30
2019-05-29T07:59:02.636Z,3.40
2019-05-29T08:01:24.781Z,3.30
2019-05-29T08:03:55.015Z,4.23
2019-05-29T08:06:25.176Z,3.70
2019-05-29T08:08:55.317Z,4.10
2019-05-29T08:11:25.524Z,3.30
2019-05-29T08:13:55.701Z,3.50
2019-05-29T08:16:25.844Z,3.37
2019-05-29T08:18:56.043Z,3.50
2019-05-29T08:21:26.272Z,3.50
2019-05-29T08:23:56.457Z,2.77
2019-05-29T08:26:26.606Z,2.97
2019-05-29T08:28:56.764Z,2.07
2019-05-29T08:31:28.455Z,2.80
2019-05-29T08:33:58.596Z,2.40
2019-05-29T08:36:28.964Z,2.03
2019-05-29T08:38:59.153Z,1.90
2019-05-29T08:41:29.300Z,2.10
2019-05-29T08:43:59.505Z,1.90
2019-05-29T08:46:33.202Z,2.37
2019-05-29T08:49:01.611Z,2.60
2019-05-29T08:51:31.796Z,2.67
2019-05-29T08:54:01.944Z,2.10
2019-05-29T08:56:32.124Z,1.67
2019-05-29T08:59:02.263Z,2.00
2019-05-29T09:01:32.439Z,1.80
2019-05-29T09:04:03.671Z,1.83
2019-05-29T09:06:33.819Z,2.00
2019-05-29T09:09:05.209Z,2.20
2019-05-29T09:11:35.348Z,2.20
2019-05-29T09:14:05.715Z,2.70
2019-05-29T09:16:35.933Z,2.10
2019-05-29T09:19:06.091Z,2.40
2019-05-29T09:21:36.236Z,2.23
2019-05-29T09:24:06.565Z,2.40
2019-05-29T09:26:36.799Z,2.03
2019-05-29T09:29:06.970Z,2.03
2019-05-29T09:31:37.107Z,2.30
2019-05-29T09:34:07.280Z,2.10
2019-05-29T09:36:37.446Z,2.60
2019-05-29T09:39:08.908Z,1.90
2019-05-29T09:41:39.061Z,2.23
2019-05-29T09:44:09.203Z,2.20
2019-05-29T09:46:39.352Z,2.53
2019-05-29T09:49:09.512Z,2.30
2019-05-29T09:51:39.674Z,2.33
2019-05-29T09:54:09.941Z,2.27
2019-05-29T09:56:40.285Z,2.13
2019-05-29T09:59:10.558Z,2.50
2019-05-29T10:01:40.740Z,2.37
2019-05-29T10:04:10.904Z,2.10
2019-05-29T10:06:41.084Z,2.50
2019-05-29T10:09:11.321Z,2.80
2019-05-29T10:11:41.571Z,2.23
2019-05-29T10:14:11.743Z,2.37
2019-05-29T10:16:41.890Z,2.10
2019-05-29T10:19:12.175Z,2.37
2019-05-29T10:21:42.406Z,2.13
2019-05-29T10:24:12.595Z,2.30
2019-05-29T10:26:42.747Z,2.37
2019-05-29T10:29:12.935Z,2.60
2019-05-29T10:31:46.805Z,2.80
2019-05-29T10:34:16.794Z,2.30
2019-05-29T10:36:50.029Z,2.10
2019-05-29T10:39:18.856Z,2.33
2019-05-29T10:41:49.033Z,2.20
2019-05-29T10:44:19.189Z,2.40
2019-05-29T10:46:51.850Z,2.33
2019-05-29T10:49:21.247Z,2.80
2019-05-29T10:52:05.480Z,2.17
2019-05-29T10:54:23.252Z,2.40
2019-05-29T10:56:54.830Z,2.20
2019-05-29T10:59:25.257Z,3.00
2019-05-29T11:01:55.589Z,2.77
2019-05-29T11:04:25.831Z,2.70
2019-05-29T11:06:56.970Z,3.00
2019-05-29T11:09:42.914Z,2.80
2019-05-29T11:11:59.165Z,2.83
2019-05-29T11:14:30.449Z,3.07
2019-05-29T11:17:00.584Z,2.80
2019-05-29T11:19:30.756Z,2.83
2019-05-29T11:22:16.225Z,2.90
2019-05-29T11:24:32.788Z,3.03
2019-05-29T11:27:02.989Z,3.60
2019-05-29T11:29:33.280Z,2.50
2019-05-29T11:32:03.468Z,2.93
2019-05-29T11:34:33.627Z,2.73
2019-05-29T11:37:03.766Z,2.87
2019-05-29T11:39:33.996Z,3.20
2019-05-29T11:42:04.724Z,3.20
2019-05-29T11:44:34.899Z,2.67
2019-05-29T11:47:05.420Z,3.00
2019-05-29T11:49:35.617Z,3.40
2019-05-29T11:52:23.296Z,2.43
2019-05-29T11:54:37.897Z,2.50
2019-05-29T11:57:08.032Z,2.57
2019-05-29T11:59:38.194Z,2.27
2019-05-29T12:02:08.549Z,2.60
2019-05-29T12:04:39.772Z,2.30
2019-05-29T12:07:10.036Z,2.30
2019-05-29T12:09:42.376Z,2.20
2019-05-29T12:12:12.257Z,2.30
2019-05-29T12:14:59.096Z,1.83
2019-05-29T12:17:14.461Z,2.10
2019-05-29T12:19:44.803Z,2.20
2019-05-29T12:22:14.993Z,1.80
2019-05-29T12:24:45.144Z,2.03
2019-05-29T12:27:15.528Z,1.90
2019-05-29T12:29:45.662Z,2.20
2019-05-29T12:32:15.944Z,2.17
2019-05-29T12:34:53.775Z,1.90
2019-05-29T12:37:18.252Z,1.80
2019-05-29T12:39:50.037Z,1.97
2019-05-29T12:42:20.225Z,1.80
2019-05-29T12:44:50.615Z,2.00
2019-05-29T12:47:20.825Z,2.63
2019-05-29T12:49:50.989Z,1.97
2019-05-29T12:52:21.209Z,1.80
2019-05-29T12:54:52.145Z,1.70
2019-05-29T12:57:23.585Z,2.07
2019-05-29T12:59:54.078Z,2.00
2019-05-29T13:02:24.338Z,1.63
2019-05-29T13:05:18.286Z,1.47
2019-05-29T13:07:26.378Z,2.27
2019-05-29T13:09:56.790Z,2.30
2019-05-29T13:12:27.014Z,1.80
2019-05-29T13:14:58.380Z,1.70
2019-05-29T13:17:28.780Z,2.50
2019-05-29T13:20:07.108Z,2.63
2019-05-29T13:22:30.951Z,2.53
2019-05-29T13:25:01.318Z,2.30
2019-05-29T13:27:31.665Z,3.03
2019-05-29T13:30:03.968Z,2.50
2019-05-29T13:32:33.682Z,2.20
2019-05-29T13:35:04.313Z,2.10
2019-05-29T13:37:34.671Z,2.30
2019-05-29T13:40:07.993Z,1.80
2019-05-29T13:42:37.301Z,2.67
2019-05-29T13:45:17.928Z,2.70
2019-05-29T13:47:40.327Z,2.40
2019-05-29T13:50:12.589Z,2.70
2019-05-29T13:52:44.271Z,2.57
2019-05-29T13:55:15.155Z,2.50
2019-05-29T13:57:46.296Z,2.40
2019-05-29T14:00:32.443Z,2.43
2019-05-29T14:02:49.062Z,2.70
2019-05-29T14:05:19.501Z,2.50
2019-05-29T14:07:49.701Z,2.40
2019-05-29T14:10:19.930Z,2.10
2019-05-29T14:12:50.247Z,2.30
2019-05-29T14:15:20.548Z,2.10
2019-05-29T14:17:50.744Z,1.97
2019-05-29T14:20:21.011Z,2.23
2019-05-29T14:22:51.207Z,2.10
2019-05-29T14:25:22.993Z,2.20
2019-05-29T14:27:53.276Z,2.00
2019-05-29T14:30:25.802Z,1.73
2019-05-29T14:32:56.426Z,2.00
2019-05-29T14:35:26.583Z,2.10
2019-05-29T14:37:56.816Z,2.33
2019-05-29T14:40:26.963Z,2.50
2019-05-29T14:42:57.149Z,2.20
2019-05-29T14:45:27.411Z,2.57
2019-05-29T14:47:57.588Z,2.60
2019-05-29T14:50:27.785Z,2.30
2019-05-29T14:52:57.968Z,2.00
2019-05-29T14:55:28.123Z,2.50
2019-05-29T14:57:58.369Z,2.50
2019-05-29T15:00:28.732Z,2.10
2019-05-29T15:02:58.896Z,2.33
2019-05-29T15:05:29.032Z,2.00
2019-05-29T15:07:59.192Z,2.23
2019-05-29T15:10:29.365Z,2.50
2019-05-29T15:12:59.693Z,2.87
2019-05-29T15:15:29.864Z,2.50
2019-05-29T15:18:00.096Z,2.30
2019-05-29T15:20:30.279Z,3.13
2019-05-29T15:23:01.580Z,2.57
2019-05-29T15:25:31.812Z,3.20
2019-05-29T15:28:01.979Z,3.30
2019-05-29T15:30:32.132Z,2.57
2019-05-29T15:33:02.390Z,2.50
2019-05-29T15:35:32.554Z,2.73
2019-05-29T15:38:02.705Z,3.10
2019-05-29T15:40:32.986Z,3.77
2019-05-29T15:43:03.176Z,3.30
2019-05-29T15:45:33.660Z,3.67
2019-05-29T15:48:03.878Z,3.07
2019-05-29T15:50:34.244Z,2.50
2019-05-29T15:53:04.405Z,2.83
2019-05-29T15:55:35.020Z,2.80
2019-05-29T15:58:07.291Z,3.00
2019-05-29T16:00:37.728Z,3.20
2019-05-29T16:03:07.922Z,2.77
2019-05-29T16:05:38.063Z,2.63
2019-05-29T16:08:08.236Z,2.63
2019-05-29T16:10:38.450Z,2.40
2019-05-29T16:13:08.739Z,3.50
2019-05-29T16:15:39.165Z,3.23
2019-05-29T16:18:19.801Z,3.23
2019-05-29T16:20:42.321Z,2.27
2019-05-29T16:23:21.660Z,2.83
2019-05-29T16:25:44.517Z,2.50
2019-05-29T16:28:15.146Z,2.40
2019-05-29T16:30:45.438Z,1.93
2019-05-29T16:33:17.070Z,2.60
2019-05-29T16:35:47.592Z,2.10
2019-05-29T16:38:17.812Z,2.20
2019-05-29T16:40:48.070Z,2.53
2019-05-29T16:43:18.220Z,2.57
2019-05-29T16:45:48.810Z,2.50
2019-05-29T16:48:20.669Z,2.30
2019-05-29T16:50:52.041Z,1.93
2019-05-29T16:53:23.380Z,2.60
2019-05-29T16:55:54.638Z,2.40
2019-05-29T16:58:26.317Z,2.20
2019-05-29T17:00:56.505Z,2.30
2019-05-29T17:03:26.674Z,2.30
2019-05-29T17:05:56.877Z,2.40
2019-05-29T17:08:28.234Z,2.20
2019-05-29T17:10:58.421Z,2.33
2019-05-29T17:13:28.596Z,2.83
2019-05-29T17:15:58.903Z,2.27
2019-05-29T17:18:29.112Z,2.20
2019-05-29T17:20:59.277Z,2.63
2019-05-29T17:23:29.463Z,2.10
2019-05-29T17:26:10.246Z,2.20
2019-05-29T17:28:32.687Z,2.23
2019-05-29T17:31:02.952Z,3.13
2019-05-29T17:33:33.179Z,3.13
2019-05-29T17:36:03.357Z,2.03
2019-05-29T17:38:33.665Z,2.60
2019-05-29T17:41:04.993Z,2.40
2019-05-29T17:43:35.240Z,2.40
2019-05-29T17:46:05.631Z,3.20
2019-05-29T17:48:35.852Z,2.73
2019-05-29T17:51:06.100Z,3.47
2019-05-29T17:53:36.603Z,2.73
2019-05-29T17:56:06.956Z,2.27
2019-05-29T17:58:37.211Z,2.70
2019-05-29T18:01:08.591Z,2.47
2019-05-29T18:03:38.812Z,2.50
2019-05-29T18:06:09.093Z,2.90
2019-05-29T18:08:40.376Z,2.60
2019-05-29T18:11:10.645Z,3.03
2019-05-29T18:13:40.976Z,3.30
2019-05-29T18:16:13.012Z,2.97
2019-05-29T18:18:43.268Z,3.27
2019-05-29T18:21:13.439Z,2.90
2019-05-29T18:23:43.621Z,3.00
2019-05-29T18:26:13.796Z,3.20
2019-05-29T18:28:43.987Z,3.10
2019-05-29T18:31:14.183Z,2.90
2019-05-29T18:33:44.373Z,2.90
2019-05-29T18:36:14.601Z,2.90
2019-05-29T18:38:44.779Z,3.83
2019-05-29T18:41:14.977Z,3.40
2019-05-29T18:43:46.216Z,4.27
2019-05-29T18:46:16.502Z,4.03
2019-05-29T18:48:46.788Z,4.40
2019-05-29T18:51:17.064Z,3.50
2019-05-29T18:53:47.472Z,3.50
2019-05-29T18:56:18.102Z,4.60
2019-05-29T18:58:48.296Z,3.77
2019-05-29T19:01:18.535Z,4.10
2019-05-29T19:03:48.922Z,3.70
2019-05-29T19:06:19.121Z,3.27
2019-05-29T19:08:49.508Z,3.67
2019-05-29T19:11:19.935Z,3.70
2019-05-29T19:13:50.632Z,3.40
2019-05-29T19:16:21.838Z,3.50
2019-05-29T19:18:54.322Z,3.40
2019-05-29T19:21:24.914Z,3.30
2019-05-29T19:23:55.132Z,3.60
2019-05-29T19:26:26.704Z,3.27
2019-05-29T19:28:56.996Z,4.20
2019-05-29T19:31:29.122Z,3.93
2019-05-29T19:33:59.424Z,4.23
2019-05-29T19:36:29.943Z,4.40
2019-05-29T19:39:00.534Z,3.60
2019-05-29T19:41:31.986Z,3.93
2019-05-29T19:44:02.269Z,4.20
2019-05-29T19:46:41.965Z,3.13
2019-05-29T19:49:04.465Z,2.60
2019-05-29T19:51:35.809Z,2.43
2019-05-29T19:54:07.140Z,2.87
2019-05-29T19:56:37.345Z,2.93
2019-05-29T19:59:07.603Z,3.30
2019-05-29T20:01:40.492Z,4.43
2019-05-29T20:04:09.809Z,3.77
2019-05-29T20:06:40.019Z,4.60
2019-05-29T20:09:12.844Z,4.00
2019-05-29T20:11:43.059Z,3.27
2019-05-29T20:14:13.248Z,3.77
2019-05-29T20:16:43.446Z,4.27
2019-05-29T20:19:13.659Z,4.03
2019-05-29T20:21:43.839Z,4.50
2019-05-29T20:24:15.458Z,4.30
2019-05-29T20:26:45.659Z,4.73
2019-05-29T20:29:15.947Z,4.50
2019-05-29T20:31:46.233Z,4.70
2019-05-29T20:34:16.605Z,5.20
2019-05-29T20:36:46.776Z,5.27
2019-05-29T20:39:17.036Z,4.60
2019-05-29T20:41:47.333Z,4.00
2019-05-29T20:44:17.583Z,4.73
2019-05-29T20:46:47.739Z,4.43
2019-05-29T20:49:18.164Z,4.70
2019-05-29T20:51:48.320Z,4.07
2019-05-29T20:54:20.284Z,5.43
2019-05-29T20:56:50.460Z,4.33
2019-05-29T20:59:20.658Z,4.30
2019-05-29T21:01:50.825Z,5.00
2019-05-29T21:04:21.492Z,4.00
2019-05-29T21:06:51.667Z,5.00
2019-05-29T21:09:21.892Z,4.43
2019-05-29T21:11:52.236Z,4.27
2019-05-29T21:14:24.886Z,4.90
2019-05-29T21:16:55.085Z,4.20
2019-05-29T21:19:25.423Z,3.87
2019-05-29T21:21:55.595Z,4.60
2019-05-29T21:24:25.833Z,4.70
2019-05-29T21:26:56.038Z,4.57
2019-05-29T21:29:26.284Z,4.30
2019-05-29T21:31:56.600Z,4.40
2019-05-29T21:34:26.811Z,3.93
2019-05-29T21:36:57.008Z,3.60
2019-05-29T21:39:27.208Z,4.20
2019-05-29T21:41:57.392Z,4.20
2019-05-29T21:44:27.695Z,3.93
2019-05-29T21:46:57.850Z,4.67
2019-05-29T21:49:31.348Z,3.67
2019-05-29T21:52:00.140Z,3.27
2019-05-29T21:54:30.410Z,3.63
2019-05-29T21:57:00.586Z,3.40
2019-05-29T21:59:30.917Z,3.80
2019-05-29T22:02:01.288Z,3.53
2019-05-29T22:04:31.571Z,4.03
2019-05-29T22:07:01.739Z,3.87
2019-05-29T22:09:32.037Z,3.80
2019-05-29T22:12:02.256Z,3.03
2019-05-29T22:14:32.663Z,3.07
2019-05-29T22:17:02.888Z,3.57
2019-05-29T22:19:34.271Z,3.60
2019-05-29T22:22:05.564Z,3.70
2019-05-29T22:24:35.942Z,3.83
2019-05-29T22:27:06.228Z,3.40
2019-05-29T22:29:36.379Z,3.50
2019-05-29T22:32:06.949Z,3.47
2019-05-29T22:34:37.088Z,3.70
2019-05-29T22:37:07.253Z,3.10
2019-05-29T22:39:37.444Z,3.20
2019-05-29T22:42:07.608Z,3.40
2019-05-29T22:44:37.853Z,3.30
2019-05-29T22:47:07.999Z,4.70
2019-05-29T22:49:38.156Z,3.23
2019-05-29T22:52:08.304Z,2.60
2019-05-29T22:54:38.441Z,3.07
2019-05-29T22:57:08.607Z,2.93
2019-05-29T22:59:38.771Z,3.27
2019-05-29T23:02:08.953Z,3.50
2019-05-29T23:04:39.115Z,3.87
2019-05-29T23:07:09.294Z,2.90
2019-05-29T23:09:39.507Z,4.00
2019-05-29T23:12:09.724Z,3.97
2019-05-29T23:14:39.907Z,4.40
2019-05-29T23:17:10.555Z,3.63
2019-05-29T23:19:40.725Z,3.80
2019-05-29T23:22:10.980Z,3.70
2019-05-29T23:24:41.348Z,4.00
2019-05-29T23:27:11.488Z,3.60
2019-05-29T23:29:49.065Z,3.57
2019-05-29T23:32:13.524Z,3.87
2019-05-29T23:34:43.687Z,3.10
2019-05-29T23:37:14.033Z,3.00
2019-05-29T23:39:44.256Z,3.50
2019-05-29T23:42:14.427Z,3.63
2019-05-29T23:44:44.639Z,3.47
2019-05-29T23:47:14.786Z,3.60
2019-05-29T23:49:44.973Z,3.47
2019-05-29T23:52:15.127Z,3.83
2019-05-29T23:54:45.275Z,4.70
2019-05-29T23:57:15.451Z,4.20
2019-05-29T23:59:45.599Z,4.10
